Time;durP1;ratioP1;P1;durP2;ratioP2;P2;SDS_P1;SDS_P2;PMS_P1;PMS_P2;Temp;Humidity;BMP_temperature;BMP_pressure;BME280_temperature;BME280_humidity;BME280_pressure;Samples;Min_cycle;Max_cycle;Signal;HPM_P1;HPM_P2
2023/01/23 00:01:07;;;;;;;5.33;4.77;;;;;;;10.92;58.52;95335.13;4985357;28;20227;-68
2023/01/23 00:03:33;;;;;;;6.73;4.50;;;;;;;10.88;58.85;95333.72;4985481;28;20289;-66
2023/01/23 00:06:05;;;;;;;6.03;4.40;;;;;;;10.91;58.72;95329.03;4985537;28;20215;-67
2023/01/23 00:08:31;;;;;;;5.73;5.17;;;;;;;10.91;58.94;95334.28;5010330;28;20282;-67
2023/01/23 00:10:57;;;;;;;8.10;5.90;;;;;;;10.75;59.95;95337.53;4966328;28;20287;-67
2023/01/23 00:13:23;;;;;;;5.73;5.03;;;;;;;10.81;59.57;95336.13;4982533;28;20208;-66
2023/01/23 00:15:49;;;;;;;7.47;4.80;;;;;;;10.79;59.39;95338.91;4997282;28;20367;-65
2023/01/23 00:18:14;;;;;;;5.00;4.37;;;;;;;10.77;59.17;95334.75;4999399;28;20223;-65
2023/01/23 00:20:40;;;;;;;7.00;4.77;;;;;;;10.64;59.44;95329.84;4988258;28;20254;-65
2023/01/23 00:23:07;;;;;;;5.20;4.70;;;;;;;10.68;59.35;95330.38;4988122;28;20323;-66
2023/01/23 00:25:34;;;;;;;5.10;4.60;;;;;;;10.73;59.16;95336.03;4987331;28;20218;-66
2023/01/23 00:27:59;;;;;;;5.47;4.60;;;;;;;10.80;58.97;95332.69;4983802;28;20219;-68
2023/01/23 00:30:25;;;;;;;5.17;4.57;;;;;;;10.81;59.04;95333.50;4988453;28;20242;-68
2023/01/23 00:32:50;;;;;;;5.83;4.57;;;;;;;10.80;59.03;95326.59;4988344;28;20360;-67
2023/01/23 00:35:16;;;;;;;5.40;4.90;;;;;;;10.86;58.89;95328.63;4988026;28;20219;-67
2023/01/23 00:37:42;;;;;;;8.17;5.07;;;;;;;10.88;58.78;95339.00;4990600;28;20214;-68
2023/01/23 00:40:08;;;;;;;6.40;4.63;;;;;;;10.74;59.16;95340.31;4983572;28;20246;-68
2023/01/23 00:42:33;;;;;;;5.50;4.90;;;;;;;10.73;59.41;95338.66;4968965;28;20220;-68
2023/01/23 00:44:59;;;;;;;5.80;5.20;;;;;;;10.69;59.48;95342.53;4975998;28;20227;-68
2023/01/23 00:47:24;;;;;;;7.93;5.40;;;;;;;10.71;59.30;95341.44;4971762;28;20227;-68
2023/01/23 00:49:52;;;;;;;5.07;4.57;;;;;;;10.71;59.27;95348.50;4988149;28;20191;-67
2023/01/23 00:52:18;;;;;;;5.53;4.93;;;;;;;10.76;58.95;95352.34;4989122;28;20187;-68
2023/01/23 00:54:44;;;;;;;6.63;4.57;;;;;;;10.80;58.95;95353.72;4991326;28;20239;-68
2023/01/23 00:57:14;;;;;;;5.73;5.00;;;;;;;10.71;59.09;95349.31;5011688;28;20227;-68
2023/01/23 00:59:40;;;;;;;6.23;4.67;;;;;;;10.69;59.25;95350.44;5001401;28;20244;-68
2023/01/23 01:02:05;;;;;;;5.40;4.67;;;;;;;10.59;59.61;95343.41;5004418;28;20344;-68
2023/01/23 01:04:31;;;;;;;6.47;5.00;;;;;;;10.70;59.24;95350.31;4991119;28;20300;-68
2023/01/23 01:06:56;;;;;;;5.80;4.20;;;;;;;10.72;59.30;95348.34;4989951;28;20223;-68
2023/01/23 01:09:22;;;;;;;7.47;5.03;;;;;;;10.65;59.34;95344.63;4988015;28;20249;-68
2023/01/23 01:11:48;;;;;;;5.20;4.80;;;;;;;10.71;59.46;95349.31;4988287;28;20278;-65
2023/01/23 01:14:14;;;;;;;5.57;4.97;;;;;;;10.75;59.33;95357.75;4987527;28;20223;-66
2023/01/23 01:16:44;;;;;;;6.00;4.77;;;;;;;10.66;59.62;95359.44;5005925;28;20175;-66
2023/01/23 01:19:10;;;;;;;5.97;4.87;;;;;;;10.52;59.87;95352.03;4982516;28;20223;-66
2023/01/23 01:21:37;;;;;;;5.27;4.67;;;;;;;10.47;60.38;95365.59;4988255;28;20243;-67
2023/01/23 01:24:03;;;;;;;5.07;4.57;;;;;;;10.48;60.30;95366.44;4988057;28;20243;-66
2023/01/23 01:26:29;;;;;;;6.07;4.83;;;;;;;10.49;60.45;95371.53;5015303;28;20228;-66
2023/01/23 01:28:54;;;;;;;5.00;4.50;;;;;;;10.60;60.00;95371.34;5001770;28;20203;-67
2023/01/23 01:31:20;;;;;;;5.70;4.27;;;;;;;10.62;59.94;95373.03;4998910;28;20220;-66
2023/01/23 01:33:45;;;;;;;4.83;4.30;;;;;;;10.57;60.34;95376.91;5002047;28;20216;-67
2023/01/23 01:36:14;;;;;;;5.30;4.07;;;;;;;10.54;60.56;95379.81;4986435;28;20231;-67
2023/01/23 01:38:40;;;;;;;4.67;2.97;;;;;;;10.47;60.36;95388.41;4986340;28;20215;-67
2023/01/23 01:41:07;;;;;;;4.90;3.60;;;;;;;10.55;60.44;95389.38;4986731;28;20238;-65
2023/01/23 01:43:33;;;;;;;4.10;3.70;;;;;;;10.59;60.46;95392.56;4987882;28;20199;-66
2023/01/23 01:46:27;;;;;;;5.33;3.60;;;;;;;10.55;60.63;95392.00;4990235;28;20230;-67
2023/01/23 01:49:09;;;;;;;3.80;3.47;;;;;;;10.56;60.89;95388.41;5003149;28;20219;-66
2023/01/23 01:51:56;;;;;;;5.93;4.00;;;;;;;10.45;61.14;95387.72;5000914;28;20245;-66
2023/01/23 01:54:33;;;;;;;5.27;3.73;;;;;;;10.54;61.52;95387.72;5003723;28;20255;-66
2023/01/23 01:57:17;;;;;;;5.70;4.27;;;;;;;10.37;62.14;95384.03;4992011;28;20237;-66
2023/01/23 01:59:51;;;;;;;6.67;4.13;;;;;;;10.48;61.93;95383.03;5012106;28;20239;-66
2023/01/23 02:02:24;;;;;;;6.80;3.90;;;;;;;10.50;61.80;95386.31;4987134;28;20380;-67
2023/01/23 02:04:54;;;;;;;4.30;3.90;;;;;;;10.49;61.98;95381.22;4967287;28;20188;-66
2023/01/23 02:07:53;;;;;;;3.90;3.47;;;;;;;10.52;61.99;95391.47;5000776;28;20184;-67
2023/01/23 02:10:20;;;;;;;4.70;3.90;;;;;;;10.52;61.81;95383.56;4983354;28;20228;-67
2023/01/23 02:12:48;;;;;;;4.47;3.87;;;;;;;10.46;62.09;95387.59;4970546;28;20227;-65
2023/01/23 02:15:14;;;;;;;3.97;3.57;;;;;;;10.42;62.01;95388.84;4967240;28;20224;-66
2023/01/23 02:17:42;;;;;;;4.57;3.87;;;;;;;10.41;62.29;95389.00;4981097;28;20227;-66
2023/01/23 02:20:21;;;;;;;3.87;3.50;;;;;;;10.46;62.09;95392.84;4988438;28;20235;-66
2023/01/23 02:22:52;;;;;;;4.27;3.10;;;;;;;10.47;62.31;95385.78;4984887;28;20718;-66
2023/01/23 02:25:27;;;;;;;4.27;3.57;;;;;;;10.35;62.59;95387.75;4987331;28;20196;-66
2023/01/23 02:27:52;;;;;;;5.33;3.27;;;;;;;10.33;62.90;95384.44;4987456;28;20237;-66
2023/01/23 02:30:19;;;;;;;3.87;3.10;;;;;;;10.32;63.12;95390.69;4974322;28;20224;-65
2023/01/23 02:32:45;;;;;;;4.00;3.33;;;;;;;10.23;63.03;95392.31;4966151;28;20227;-66
2023/01/23 02:35:31;;;;;;;3.60;2.90;;;;;;;10.19;63.22;95390.94;4999439;28;20227;-66
2023/01/23 02:38:02;;;;;;;3.70;3.40;;;;;;;10.20;63.34;95386.50;4964390;28;20288;-66
2023/01/23 02:40:35;;;;;;;4.70;3.70;;;;;;;10.12;63.66;95395.09;4982711;28;20231;-66
2023/01/23 02:43:03;;;;;;;4.47;3.30;;;;;;;10.15;63.65;95393.00;5001012;28;20231;-66
2023/01/23 02:45:29;;;;;;;4.50;3.20;;;;;;;10.22;63.33;95395.09;4970500;28;20228;-66
2023/01/23 02:47:55;;;;;;;3.63;3.33;;;;;;;10.29;63.19;95390.94;5011273;28;20281;-65
2023/01/23 02:50:20;;;;;;;4.23;3.27;;;;;;;10.32;62.90;95388.06;4982846;28;20219;-66
2023/01/23 02:52:46;;;;;;;5.20;3.37;;;;;;;10.06;63.62;95393.03;4966417;28;20350;-66
2023/01/23 02:55:11;;;;;;;3.57;3.20;;;;;;;10.10;63.13;95392.63;5003463;28;20257;-66
2023/01/23 02:57:37;;;;;;;3.77;3.47;;;;;;;9.98;63.62;95396.34;4988800;28;20227;-68
2023/01/23 03:00:15;;;;;;;4.40;3.30;;;;;;;10.10;63.46;95382.09;4983595;28;20235;-67
2023/01/23 03:02:40;;;;;;;3.80;3.50;;;;;;;9.82;64.36;95394.25;5000537;28;20334;-67
2023/01/23 03:05:10;;;;;;;3.40;2.90;;;;;;;9.71;64.76;95384.72;4990310;28;20334;-67
2023/01/23 03:07:36;;;;;;;4.60;3.17;;;;;;;9.69;64.71;95384.03;5021071;28;20199;-67
2023/01/23 03:10:02;;;;;;;4.00;3.23;;;;;;;9.83;64.01;95390.66;4989203;28;20289;-67
2023/01/23 03:12:28;;;;;;;3.20;2.90;;;;;;;9.90;63.87;95385.69;5020004;28;20222;-67
2023/01/23 03:14:54;;;;;;;2.47;2.23;;;;;;;9.88;63.88;95398.13;4988710;28;20238;-67
2023/01/23 03:17:21;;;;;;;2.73;2.47;;;;;;;9.86;63.85;95395.66;4987811;28;20315;-67
2023/01/23 03:19:47;;;;;;;2.37;2.10;;;;;;;9.85;63.52;95396.63;5021720;28;20311;-67
2023/01/23 03:22:13;;;;;;;2.23;2.00;;;;;;;9.85;63.42;95390.53;5020724;28;20227;-67
2023/01/23 03:24:39;;;;;;;3.17;2.40;;;;;;;9.81;63.75;95392.63;4989889;28;20219;-67
2023/01/23 03:27:05;;;;;;;2.57;2.33;;;;;;;9.89;63.47;95389.28;5009507;28;20273;-67
2023/01/23 03:32:16;;;;;;;2.50;2.30;;;;;;;9.82;63.39;95378.50;4971910;28;20357;-67
2023/01/23 03:34:41;;;;;;;2.27;1.97;;;;;;;9.79;63.58;95380.59;4998218;28;20808;-66
2023/01/23 03:37:08;;;;;;;3.53;2.40;;;;;;;9.91;63.23;95384.72;4981004;28;20310;-67
2023/01/23 03:42:18;;;;;;;3.03;2.20;;;;;;;9.81;63.51;95378.63;4967091;28;20320;-66
2023/01/23 03:44:43;;;;;;;2.53;2.33;;;;;;;9.98;63.23;95388.47;4976067;28;20311;-66
2023/01/23 03:47:09;;;;;;;3.40;2.77;;;;;;;9.82;63.79;95389.00;5002001;28;20682;-66
2023/01/23 03:49:34;;;;;;;3.43;2.90;;;;;;;9.75;64.04;95397.56;4987559;28;20183;-67
2023/01/23 03:52:01;;;;;;;5.07;3.47;;;;;;;9.71;64.09;95387.34;4988484;28;20227;-66
2023/01/23 03:54:27;;;;;;;3.97;3.47;;;;;;;9.56;64.32;95386.09;4991747;28;20253;-66
2023/01/23 03:56:53;;;;;;;4.07;3.43;;;;;;;9.64;64.75;95386.22;4993828;28;20222;-66
2023/01/23 03:59:18;;;;;;;5.80;4.17;;;;;;;9.57;64.53;95385.13;5009281;28;20703;-66
2023/01/23 04:01:44;;;;;;;6.00;3.67;;;;;;;9.71;64.09;95382.09;5007421;28;20183;-67
2023/01/23 04:04:10;;;;;;;4.23;3.83;;;;;;;9.68;64.03;95386.81;5007554;28;20224;-67
2023/01/23 04:06:35;;;;;;;5.17;4.23;;;;;;;9.49;64.76;95387.63;4993270;28;20219;-66
2023/01/23 04:09:01;;;;;;;5.60;4.37;;;;;;;9.50;64.89;95394.50;4992845;28;20219;-66
2023/01/23 04:11:27;;;;;;;5.50;4.37;;;;;;;9.57;64.62;95403.50;4992248;28;20247;-66
2023/01/23 04:13:53;;;;;;;4.90;3.47;;;;;;;9.59;64.58;95405.97;4992942;28;20249;-67
2023/01/23 04:16:20;;;;;;;4.60;3.80;;;;;;;9.61;64.56;95412.75;5024140;28;20242;-67
2023/01/23 04:18:46;;;;;;;3.90;3.50;;;;;;;9.47;64.86;95410.53;5008227;28;20220;-67
2023/01/23 04:21:11;;;;;;;4.33;3.93;;;;;;;9.51;64.72;95401.41;4993981;28;20242;-65
2023/01/23 04:23:37;;;;;;;4.53;3.30;;;;;;;9.60;64.09;95403.22;5025372;28;20223;-66
2023/01/23 04:26:02;;;;;;;3.63;3.33;;;;;;;9.66;63.72;95404.47;5001502;28;20274;-67
2023/01/23 04:28:28;;;;;;;4.30;3.90;;;;;;;9.60;63.97;95413.75;4993349;28;20180;-67
2023/01/23 04:30:53;;;;;;;4.03;3.70;;;;;;;9.62;63.79;95410.97;4991785;28;20239;-66
2023/01/23 04:33:19;;;;;;;4.07;3.23;;;;;;;9.58;63.83;95413.03;5007788;28;20238;-66
2023/01/23 04:35:49;;;;;;;6.93;3.77;;;;;;;9.67;63.18;95412.22;5016215;28;20247;-66
2023/01/23 04:38:15;;;;;;;4.33;2.80;;;;;;;9.65;63.24;95408.91;4992888;28;20219;-66
2023/01/23 04:40:40;;;;;;;2.93;2.23;;;;;;;9.81;62.60;95416.25;5011163;28;20207;-66
2023/01/23 04:43:05;;;;;;;2.83;2.30;;;;;;;9.76;62.73;95420.25;4990699;28;20338;-66
2023/01/23 04:45:31;;;;;;;3.70;2.20;;;;;;;9.62;63.14;95418.84;5008810;28;20219;-67
2023/01/23 04:47:56;;;;;;;3.33;2.70;;;;;;;9.56;63.09;95412.34;4989845;28;20339;-69
2023/01/23 04:50:22;;;;;;;3.67;2.77;;;;;;;9.62;63.32;95419.69;5004055;28;20219;-67
2023/01/23 04:52:47;;;;;;;2.87;2.23;;;;;;;9.50;63.60;95415.50;5005641;28;20204;-66
2023/01/23 04:55:13;;;;;;;3.73;2.80;;;;;;;9.41;64.11;95424.19;5006822;28;20183;-67
2023/01/23 04:57:38;;;;;;;3.70;2.83;;;;;;;9.44;64.18;95421.31;5022941;28;20219;-67
2023/01/23 05:00:04;;;;;;;4.00;2.73;;;;;;;9.42;64.09;95416.19;4988575;28;20250;-67
2023/01/23 05:02:30;;;;;;;3.50;2.73;;;;;;;9.50;64.00;95410.25;4984407;28;20212;-67
2023/01/23 05:04:55;;;;;;;3.83;2.97;;;;;;;9.23;65.06;95424.84;4986261;28;20238;-66
2023/01/23 05:07:20;;;;;;;4.00;3.10;;;;;;;9.28;65.03;95422.66;4973257;28;20185;-67
2023/01/23 05:09:46;;;;;;;3.30;2.97;;;;;;;9.41;65.11;95426.81;4970749;28;20267;-67
2023/01/23 05:12:11;;;;;;;3.80;3.20;;;;;;;9.40;64.90;95425.97;4975639;28;20224;-67
2023/01/23 05:14:37;;;;;;;3.87;2.63;;;;;;;9.56;64.44;95424.63;4992649;28;20223;-67
2023/01/23 05:17:02;;;;;;;4.10;2.73;;;;;;;9.62;64.17;95422.31;4990220;28;20191;-68
2023/01/23 05:19:28;;;;;;;3.87;2.70;;;;;;;9.69;63.84;95425.22;4974203;28;20195;-67
2023/01/23 05:21:53;;;;;;;3.37;2.60;;;;;;;9.56;64.17;95432.50;4992155;28;20328;-66
2023/01/23 05:24:18;;;;;;;3.13;2.80;;;;;;;9.40;64.54;95435.66;4974009;28;20266;-66
2023/01/23 05:26:44;;;;;;;3.73;2.50;;;;;;;9.54;64.02;95432.63;5002310;28;20212;-67
2023/01/23 05:29:09;;;;;;;3.40;2.20;;;;;;;9.70;63.66;95429.47;4990814;28;20277;-66
2023/01/23 05:31:35;;;;;;;3.37;2.37;;;;;;;9.75;63.30;95436.97;5004728;28;20203;-67
2023/01/23 05:34:00;;;;;;;4.20;2.50;;;;;;;9.58;63.39;95443.72;5020844;28;20219;-67
2023/01/23 05:36:25;;;;;;;2.83;2.00;;;;;;;9.52;63.67;95439.84;5004073;28;20311;-66
2023/01/23 05:38:53;;;;;;;2.53;2.03;;;;;;;9.44;63.51;95452.81;4986578;28;20342;-65
2023/01/23 05:41:18;;;;;;;4.23;2.10;;;;;;;9.66;62.82;95457.81;4988281;28;20341;-66
2023/01/23 05:43:44;;;;;;;2.87;1.80;;;;;;;9.59;63.39;95455.88;4991902;28;20197;-65
2023/01/23 05:46:09;;;;;;;2.40;1.80;;;;;;;9.71;62.55;95463.50;4987797;28;20254;-66
2023/01/23 05:48:34;;;;;;;1.90;1.70;;;;;;;9.65;62.52;95471.06;5005029;28;20281;-67
2023/01/23 05:51:03;;;;;;;2.27;1.80;;;;;;;9.64;62.43;95474.69;4993918;28;20310;-65
2023/01/23 05:53:29;;;;;;;3.77;2.70;;;;;;;9.71;62.21;95471.38;5021492;28;20223;-66
2023/01/23 05:55:54;;;;;;;2.20;1.90;;;;;;;9.78;61.85;95478.72;4987532;28;20244;-66
2023/01/23 05:58:19;;;;;;;2.40;2.20;;;;;;;9.72;61.70;95483.53;4988964;28;20186;-65
2023/01/23 06:00:45;;;;;;;3.13;2.60;;;;;;;9.57;61.91;95490.16;4988196;28;20230;-65
2023/01/23 06:03:10;;;;;;;2.93;2.10;;;;;;;9.73;61.34;95489.63;4988647;28;20409;-66
2023/01/23 06:05:36;;;;;;;2.67;2.40;;;;;;;9.70;61.34;95485.50;4989761;28;20253;-65
2023/01/23 06:08:01;;;;;;;2.83;2.23;;;;;;;9.49;62.00;95476.88;4989424;28;20475;-67
2023/01/23 06:10:27;;;;;;;4.40;3.00;;;;;;;9.52;61.89;95489.72;4990386;28;20179;-65
2023/01/23 06:12:52;;;;;;;3.53;2.80;;;;;;;9.55;61.55;95502.56;4989146;28;20227;-66
2023/01/23 06:15:18;;;;;;;3.13;1.90;;;;;;;9.55;61.43;95502.56;5004438;28;20227;-66
2023/01/23 06:17:43;;;;;;;3.07;2.07;;;;;;;9.53;61.57;95504.50;5004375;28;20265;-66
2023/01/23 06:20:11;;;;;;;4.60;2.40;;;;;;;9.50;61.61;95510.00;4986493;28;20247;-67
2023/01/23 06:22:36;;;;;;;4.70;2.30;;;;;;;9.66;61.12;95509.50;4988211;28;20250;-68
2023/01/23 06:25:02;;;;;;;3.10;2.20;;;;;;;9.64;61.19;95512.25;5020781;28;20286;-67
2023/01/23 06:27:28;;;;;;;2.57;2.10;;;;;;;9.50;61.46;95521.34;4987745;28;20221;-67
2023/01/23 06:29:53;;;;;;;4.23;2.80;;;;;;;9.58;61.66;95515.44;5004353;28;20231;-67
2023/01/23 06:32:19;;;;;;;4.03;2.60;;;;;;;9.47;62.42;95507.66;5002606;28;20254;-67
2023/01/23 06:34:44;;;;;;;2.97;2.23;;;;;;;9.61;62.16;95512.53;4989027;28;20191;-67
2023/01/23 06:37:09;;;;;;;3.93;3.00;;;;;;;9.40;62.51;95509.97;4987781;28;20220;-67
2023/01/23 06:39:35;;;;;;;3.70;2.80;;;;;;;9.54;62.46;95521.91;5004569;28;20309;-67
2023/01/23 06:42:00;;;;;;;3.63;2.57;;;;;;;9.56;62.35;95525.22;4989639;28;20235;-68
2023/01/23 06:44:26;;;;;;;3.10;2.80;;;;;;;9.66;62.29;95520.84;5001130;28;20231;-68
2023/01/23 06:46:52;;;;;;;5.67;2.97;;;;;;;9.75;62.18;95527.06;4988799;28;20191;-67
2023/01/23 06:49:17;;;;;;;4.70;3.37;;;;;;;9.49;63.19;95524.94;4987657;28;20195;-68
2023/01/23 06:51:43;;;;;;;5.47;3.63;;;;;;;9.60;63.04;95533.69;4988055;28;20227;-68
2023/01/23 06:54:08;;;;;;;6.00;4.30;;;;;;;9.44;63.82;95524.50;4988288;28;20285;-67
2023/01/23 06:56:34;;;;;;;6.60;4.97;;;;;;;9.46;64.09;95537.47;4986452;28;20231;-68
2023/01/23 06:58:59;;;;;;;6.57;5.20;;;;;;;9.39;64.02;95536.38;4993568;28;20196;-67
2023/01/23 07:01:25;;;;;;;6.33;5.73;;;;;;;9.46;64.13;95546.22;4999309;28;20200;-67
2023/01/23 07:03:50;;;;;;;6.93;5.73;;;;;;;9.14;65.04;95538.47;4986885;28;20314;-66
2023/01/23 07:06:16;;;;;;;7.93;6.20;;;;;;;9.21;64.73;95541.38;4981464;28;20227;-66
2023/01/23 07:08:42;;;;;;;6.23;5.53;;;;;;;9.23;64.74;95555.22;4978119;28;20967;-65
2023/01/23 07:11:08;;;;;;;8.07;5.57;;;;;;;9.17;64.71;95553.94;4996333;28;20302;-64
2023/01/23 07:13:33;;;;;;;5.73;4.60;;;;;;;9.26;64.55;95549.69;4979529;28;20658;-65
2023/01/23 07:15:59;;;;;;;7.47;5.77;;;;;;;9.49;63.81;95563.50;4996369;28;20227;-66
2023/01/23 07:18:27;;;;;;;6.57;5.90;;;;;;;9.32;64.13;95553.59;4982583;28;20223;-66
2023/01/23 07:20:52;;;;;;;6.23;4.90;;;;;;;9.30;64.42;95556.34;5005318;28;20710;-65
2023/01/23 07:23:20;;;;;;;6.80;5.47;;;;;;;9.31;64.40;95557.19;4963082;28;20221;-66
2023/01/23 07:25:45;;;;;;;7.20;5.50;;;;;;;9.24;64.79;95552.44;4962119;28;20215;-66
2023/01/23 07:28:11;;;;;;;6.73;5.97;;;;;;;9.33;64.58;95571.84;4965697;28;20228;-66
2023/01/23 07:30:36;;;;;;;7.63;6.80;;;;;;;9.30;64.46;95579.13;4968498;28;20645;-65
2023/01/23 07:33:02;;;;;;;7.37;6.63;;;;;;;9.21;65.10;95580.75;4977095;28;20227;-66
2023/01/23 07:35:28;;;;;;;8.20;7.00;;;;;;;9.24;65.37;95576.06;4989907;28;20250;-66
2023/01/23 07:37:57;;;;;;;9.77;6.57;;;;;;;9.18;65.83;95570.50;4989445;28;20249;-66
2023/01/23 07:40:23;;;;;;;9.67;7.47;;;;;;;8.82;66.97;95573.47;4991518;28;20231;-66
2023/01/23 07:42:49;;;;;;;10.27;7.60;;;;;;;9.00;66.51;95580.75;4987883;28;20227;-66
2023/01/23 07:45:14;;;;;;;11.73;7.97;;;;;;;9.07;66.05;95570.59;4987306;28;20230;-66
2023/01/23 07:47:40;;;;;;;7.50;6.60;;;;;;;9.01;66.42;95588.50;4988794;28;20215;-66
2023/01/23 07:50:07;;;;;;;8.13;6.90;;;;;;;9.00;66.49;95589.44;4986740;28;20241;-66
2023/01/23 07:52:32;;;;;;;7.07;6.37;;;;;;;8.92;66.38;95588.41;5004889;28;20199;-67
2023/01/23 07:54:58;;;;;;;8.93;6.67;;;;;;;8.94;66.09;95587.34;4988598;28;20234;-67
2023/01/23 07:57:23;;;;;;;8.13;6.30;;;;;;;9.15;65.84;95583.88;5004164;28;20231;-66
2023/01/23 07:59:49;;;;;;;8.10;6.33;;;;;;;9.16;65.69;95591.63;5006184;28;20242;-65
2023/01/23 08:02:14;;;;;;;7.07;6.20;;;;;;;9.21;64.66;95592.06;5003472;28;20254;-66
2023/01/23 08:04:39;;;;;;;7.23;5.47;;;;;;;9.20;64.80;95597.47;5004072;28;20203;-67
2023/01/23 08:07:05;;;;;;;7.20;6.47;;;;;;;8.94;65.70;95613.56;4987038;28;20319;-68
2023/01/23 08:09:30;;;;;;;5.97;5.03;;;;;;;9.10;64.35;95612.31;4985421;28;20249;-68
2023/01/23 08:11:56;;;;;;;6.90;5.30;;;;;;;8.87;64.78;95614.19;4985570;28;20319;-67
2023/01/23 08:14:21;;;;;;;6.67;5.37;;;;;;;8.93;65.10;95613.72;5002519;28;20277;-68
2023/01/23 08:16:51;;;;;;;7.70;6.03;;;;;;;9.16;64.14;95607.34;4988637;28;20203;-67
2023/01/23 08:19:17;;;;;;;7.13;5.13;;;;;;;9.02;63.73;95608.50;5001211;28;20421;-68
2023/01/23 08:21:43;;;;;;;5.10;4.60;;;;;;;8.97;63.83;95617.72;4988651;28;20239;-68
2023/01/23 08:24:10;;;;;;;6.67;4.63;;;;;;;9.21;62.89;95615.69;4987724;28;20506;-70
2023/01/23 08:26:36;;;;;;;6.53;4.97;;;;;;;9.10;63.17;95628.03;4986839;28;20231;-69
2023/01/23 08:29:01;;;;;;;5.63;4.83;;;;;;;9.13;62.47;95641.72;5002544;28;20204;-69
2023/01/23 08:31:26;;;;;;;7.43;4.93;;;;;;;9.03;62.41;95638.19;4988575;28;20203;-69
2023/01/23 08:33:52;;;;;;;4.93;4.17;;;;;;;8.94;62.29;95645.03;5003292;28;20238;-69
2023/01/23 08:36:18;;;;;;;7.40;4.73;;;;;;;8.91;62.66;95634.81;4986570;28;20256;-69
2023/01/23 08:38:43;;;;;;;5.70;4.87;;;;;;;8.94;62.53;95629.31;5002933;28;20233;-69
2023/01/23 08:41:10;;;;;;;7.23;5.43;;;;;;;8.83;62.65;95635.44;4986507;28;20282;-69
2023/01/23 08:43:37;;;;;;;5.73;4.47;;;;;;;8.91;61.93;95640.06;4988681;28;20206;-69
2023/01/23 08:46:02;;;;;;;6.50;4.47;;;;;;;8.81;62.39;95655.69;4987496;28;20223;-69
2023/01/23 08:48:28;;;;;;;5.37;3.93;;;;;;;8.82;62.30;95657.38;4968355;28;20242;-69
2023/01/23 08:51:11;;;;;;;5.80;4.20;;;;;;;8.98;61.77;95645.59;5003801;28;20231;-69
2023/01/23 08:53:37;;;;;;;5.90;4.10;;;;;;;9.09;60.94;95647.34;4989266;28;20227;-69
2023/01/23 08:56:05;;;;;;;6.53;4.17;;;;;;;9.00;61.44;95656.81;5019371;28;20209;-69
2023/01/23 08:58:31;;;;;;;5.40;4.33;;;;;;;8.92;61.51;95646.13;4985184;28;20207;-69
2023/01/23 09:00:57;;;;;;;4.97;4.23;;;;;;;8.97;61.59;95654.44;5002603;28;20246;-68
2023/01/23 09:03:23;;;;;;;4.70;4.03;;;;;;;9.07;61.16;95652.75;4988365;28;20282;-69
2023/01/23 09:05:49;;;;;;;6.17;4.40;;;;;;;9.18;60.54;95659.72;4989183;28;20227;-68
2023/01/23 09:08:14;;;;;;;5.43;4.27;;;;;;;9.22;60.40;95655.88;4988513;28;20243;-68
2023/01/23 09:10:39;;;;;;;5.67;4.33;;;;;;;9.14;60.34;95655.66;5003391;28;20212;-68
2023/01/23 09:13:05;;;;;;;5.63;4.00;;;;;;;8.94;60.87;95663.41;5008820;28;20231;-68
2023/01/23 09:15:30;;;;;;;4.77;3.97;;;;;;;8.92;61.25;95649.56;5006971;28;20282;-68
2023/01/23 09:17:56;;;;;;;4.93;4.10;;;;;;;9.09;60.64;95658.69;4998919;28;20216;-68
2023/01/23 09:20:25;;;;;;;6.20;3.70;;;;;;;9.22;60.66;95672.47;4987598;28;20239;-68
2023/01/23 09:22:51;;;;;;;4.37;3.37;;;;;;;9.42;59.79;95664.72;4988330;28;20291;-67
2023/01/23 09:25:17;;;;;;;4.53;3.70;;;;;;;9.36;59.51;95665.22;5020055;28;20241;-68
2023/01/23 09:27:43;;;;;;;4.63;3.67;;;;;;;9.42;59.63;95672.59;4986727;28;20235;-68
2023/01/23 09:30:09;;;;;;;4.70;3.17;;;;;;;9.42;59.14;95659.47;4984284;28;20231;-67
2023/01/23 09:32:34;;;;;;;3.60;2.90;;;;;;;9.35;60.11;95664.38;4986562;28;20227;-67
2023/01/23 09:34:59;;;;;;;3.10;2.80;;;;;;;9.26;59.85;95659.91;4990162;28;20655;-68
2023/01/23 09:37:28;;;;;;;3.20;2.77;;;;;;;9.18;60.21;95647.44;4987501;28;20207;-68
2023/01/23 09:39:53;;;;;;;3.67;2.93;;;;;;;9.22;60.07;95654.09;4999265;28;20254;-68
2023/01/23 09:42:31;;;;;;;4.23;2.83;;;;;;;9.14;60.78;95651.28;4988133;28;20307;-67
2023/01/23 09:45:02;;;;;;;3.57;3.17;;;;;;;9.34;60.41;95651.41;4985477;28;20220;-68
2023/01/23 09:47:48;;;;;;;3.43;2.77;;;;;;;9.39;59.99;95642.19;4990801;28;20222;-67
2023/01/23 09:50:26;;;;;;;4.37;3.47;;;;;;;9.33;60.64;95637.44;5015154;28;20244;-67
2023/01/23 09:53:04;;;;;;;3.23;2.93;;;;;;;9.37;60.69;95641.47;4958108;28;20200;-67
2023/01/23 09:55:44;;;;;;;5.20;3.77;;;;;;;9.44;60.22;95637.38;4980149;28;20196;-67
2023/01/23 09:58:18;;;;;;;4.90;3.70;;;;;;;9.19;61.17;95643.00;4977489;28;20242;-66
2023/01/23 10:00:45;;;;;;;5.03;3.70;;;;;;;9.20;61.79;95648.13;4967820;28;20244;-67
2023/01/23 10:03:14;;;;;;;4.00;3.60;;;;;;;9.28;61.64;95648.31;4967360;28;20252;-67
2023/01/23 10:05:58;;;;;;;5.10;3.83;;;;;;;9.20;62.72;95648.13;4962320;28;20227;-67
2023/01/23 10:08:23;;;;;;;7.20;4.80;;;;;;;9.16;62.51;95648.50;4981509;28;20240;-68
2023/01/23 10:11:03;;;;;;;5.87;5.00;;;;;;;9.10;63.21;95649.84;4965900;28;20219;-68
2023/01/23 10:13:57;;;;;;;6.00;5.20;;;;;;;9.05;63.81;95646.78;4979531;28;20327;-67
2023/01/23 10:16:32;;;;;;;6.53;4.90;;;;;;;9.01;63.47;95650.63;4998373;28;20255;-67
2023/01/23 10:19:31;;;;;;;5.40;4.90;;;;;;;9.12;63.63;95652.38;4998996;28;20231;-67
2023/01/23 10:22:37;;;;;;;6.43;5.00;;;;;;;9.11;64.04;95641.00;5001674;28;20334;-67
2023/01/23 10:25:36;;;;;;;6.53;5.13;;;;;;;9.08;63.98;95638.66;4974748;28;20220;-67
2023/01/23 10:28:11;;;;;;;5.20;4.77;;;;;;;9.08;64.03;95637.81;4948717;28;20251;-67
2023/01/23 10:30:39;;;;;;;5.80;5.07;;;;;;;9.16;63.58;95630.97;4936558;28;20323;-68
2023/01/23 10:33:14;;;;;;;5.17;4.67;;;;;;;9.18;64.81;95634.31;4942811;28;20335;-68
2023/01/23 10:35:50;;;;;;;5.03;4.37;;;;;;;9.22;64.19;95635.72;4950581;28;20241;-68
2023/01/23 10:38:25;;;;;;;5.80;5.30;;;;;;;9.25;64.63;95643.34;4946909;28;20314;-68
2023/01/23 10:43:36;;;;;;;5.93;5.43;;;;;;;9.27;64.46;95646.69;4971075;28;20257;-67
2023/01/23 10:46:09;;;;;;;6.67;5.03;;;;;;;9.20;64.34;95636.81;4951420;28;20224;-67
2023/01/23 10:48:35;;;;;;;6.30;5.70;;;;;;;9.24;65.06;95641.66;4944975;28;20298;-67
2023/01/23 10:51:00;;;;;;;7.07;6.33;;;;;;;9.25;64.63;95638.09;4950958;28;20277;-68
2023/01/23 10:53:26;;;;;;;9.10;6.13;;;;;;;9.18;64.89;95630.84;4952249;28;20232;-67
2023/01/23 10:55:56;;;;;;;7.30;6.53;;;;;;;9.25;64.55;95632.84;4965706;28;20192;-67
2023/01/23 10:58:42;;;;;;;9.87;6.03;;;;;;;9.32;64.52;95642.81;4949598;28;20196;-67
2023/01/23 11:01:25;;;;;;;7.17;6.03;;;;;;;9.13;65.40;95636.47;4966250;28;20239;-68
2023/01/23 11:03:50;;;;;;;7.73;6.93;;;;;;;9.21;65.29;95641.09;4941951;28;20619;-68
2023/01/23 11:06:19;;;;;;;7.73;6.80;;;;;;;9.20;65.43;95637.66;5003147;28;20228;-67
2023/01/23 11:08:57;;;;;;;9.87;7.53;;;;;;;9.16;65.17;95640.63;4966847;28;20471;-67
2023/01/23 11:11:24;;;;;;;8.37;6.80;;;;;;;9.07;65.79;95642.25;5004879;28;20301;-68
2023/01/23 11:14:11;;;;;;;10.87;7.53;;;;;;;9.11;66.25;95634.94;4986122;28;20297;-68
2023/01/23 11:16:37;;;;;;;8.90;7.33;;;;;;;8.93;66.25;95632.06;4984563;28;20248;-67
2023/01/23 11:19:06;;;;;;;8.97;7.43;;;;;;;9.02;65.81;95637.38;4985988;28;20274;-67
2023/01/23 11:21:49;;;;;;;8.23;7.33;;;;;;;9.01;65.92;95645.38;5015201;28;20242;-68
2023/01/23 11:24:23;;;;;;;9.77;8.00;;;;;;;9.04;66.46;95643.34;5008040;28;20235;-68
2023/01/23 11:26:58;;;;;;;8.87;7.87;;;;;;;8.76;67.23;95638.69;5002795;28;20231;-67
2023/01/23 11:29:27;;;;;;;9.53;8.37;;;;;;;8.98;67.55;95632.50;4963066;28;20227;-68
2023/01/23 11:32:01;;;;;;;8.10;6.87;;;;;;;9.16;66.65;95640.63;5003337;28;20245;-68
2023/01/23 11:34:34;;;;;;;7.57;6.77;;;;;;;9.18;66.74;95636.09;5018686;28;20179;-67
2023/01/23 11:37:16;;;;;;;7.43;6.57;;;;;;;9.14;66.23;95635.53;4985921;28;20282;-69
2023/01/23 11:40:00;;;;;;;8.07;7.30;;;;;;;9.06;66.42;95643.19;5007289;28;20216;-68
2023/01/23 11:42:27;;;;;;;7.27;6.47;;;;;;;8.90;67.19;95629.69;4978556;28;20243;-68
2023/01/23 11:44:54;;;;;;;9.43;7.57;;;;;;;9.00;67.16;95633.22;5010228;28;20227;-68
2023/01/23 11:47:29;;;;;;;7.30;6.57;;;;;;;9.11;66.81;95634.94;5020675;28;20318;-69
2023/01/23 11:50:13;;;;;;;6.33;5.70;;;;;;;9.14;66.71;95634.69;4987054;28;20205;-68
2023/01/23 11:52:47;;;;;;;8.13;6.80;;;;;;;9.01;66.82;95634.91;5021860;28;20191;-68